Temp: 17.1°C   Baro: 1023.6mb
  Wind: 4.0mph   Dir: WNW (298°)
  Rain: 7.0mm (0.0mm/hr)
  Solar: 134W/m2  Hum: 67%

Historic data

Bath Spa Weather Station Historical Data
Daily Summary for May 21, 2022 Units:  Both    English   Metric
Daily Weekly Monthly Yearly Custom
  High: Low: Average:
Temperature: 64.8 °F /  18.2 °C 48.9 °F /  9.4 °C 56.9 °F /  13.8 °C
Dew Point: 51.6 °F /  10.9 °C 46 °F /  7.8 °C 48.8 °F /  9.3 °C
Humidity: 91% 56.2% 76%
Wind Speed: 9.6mph /  15.4km/h - 3.8mph /  6.1km/h
Wind Gust: 19mph /  30.6km/h - -
Wind- - West
Pressure: 30.21 in /  1022.9 hPa 30.11 in /  1019.5 hPa -
Precipitation: 0.00 in /  0 mm    
Historical Graphs
 
 
Tabular Data for May 21, 2022
Time Temperature Dew Point Pressure Wind Wind Speed Wind Gust Humidity Rainfall Rate (Hourly) solar
00:09 50.5 °F /  10.3 °C 47.1 °F /  8.4 °C 30.16in /  1021.2hPa WNW 2.2mph /  3.5km/h 4mph /  6.4km/h 88% 0.00in /  0mm 0 W/m2
00:14 50.5 °F /  10.3 °C 47.1 °F /  8.4 °C 30.16in /  1021.2hPa WNW 2.6mph /  4.2km/h 4mph /  6.4km/h 88% 0.00in /  0mm 0 W/m2
00:19 50.5 °F /  10.3 °C 47 °F /  8.3 °C 30.16in /  1021.2hPa WNW 2.9mph /  4.7km/h 4mph /  6.4km/h 87.8% 0.00in /  0mm 0 W/m2
00:24 50.5 °F /  10.3 °C 47 °F /  8.3 °C 30.16in /  1021.2hPa West 3.5mph /  5.6km/h 6mph /  9.7km/h 87.6% 0.00in /  0mm 0 W/m2
00:29 50.5 °F /  10.3 °C 46.8 °F /  8.2 °C 30.16in /  1021.2hPa West 3.6mph /  5.8km/h 7mph /  11.3km/h 87% 0.00in /  0mm 0 W/m2
00:34 50.6 °F /  10.3 °C 46.9 °F /  8.3 °C 30.16in /  1021.2hPa WSW 4.2mph /  6.8km/h 7mph /  11.3km/h 87% 0.00in /  0mm 0 W/m2
00:39 50.7 °F /  10.4 °C 46.9 °F /  8.3 °C 30.16in /  1021.2hPa West 3.2mph /  5.1km/h 6mph /  9.7km/h 87% 0.00in /  0mm 0 W/m2
00:44 50.8 °F /  10.4 °C 47 °F /  8.3 °C 30.16in /  1021.2hPa West 2.2mph /  3.5km/h 5mph /  8km/h 87% 0.00in /  0mm 0 W/m2
00:49 50.8 °F /  10.4 °C 47 °F /  8.3 °C 30.16in /  1021.2hPa West 1.8mph /  2.9km/h 3mph /  4.8km/h 87% 0.00in /  0mm 0 W/m2
00:54 50.6 °F /  10.3 °C 46.9 °F /  8.3 °C 30.16in /  1021.2hPa West 1.5mph /  2.4km/h 3mph /  4.8km/h 87% 0.00in /  0mm 0 W/m2
00:59 50.4 °F /  10.2 °C 46.6 °F /  8.1 °C 30.16in /  1021.2hPa West 2mph /  3.2km/h 3mph /  4.8km/h 87% 0.00in /  0mm 0 W/m2
01:03 50.3 °F /  10.2 °C 46.5 °F /  8.1 °C 30.16in /  1021.2hPa West 2mph /  3.2km/h 4mph /  6.4km/h 87% 0.00in /  0mm 0 W/m2
01:09 50.3 °F /  10.2 °C 46.5 °F /  8.1 °C 30.16in /  1021.2hPa West 2.3mph /  3.7km/h 5mph /  8km/h 87% 0.00in /  0mm 0 W/m2
01:14 50.4 °F /  10.2 °C 46.8 °F /  8.2 °C 30.16in /  1021.2hPa West 2.4mph /  3.9km/h 4mph /  6.4km/h 87.6% 0.00in /  0mm 0 W/m2
01:19 50.5 °F /  10.3 °C 47.1 °F /  8.4 °C 30.16in /  1021.2hPa West 2.6mph /  4.2km/h 4mph /  6.4km/h 88% 0.00in /  0mm 0 W/m2
01:24 50.6 °F /  10.3 °C 47.2 °F /  8.4 °C 30.16in /  1021.2hPa West 1.7mph /  2.7km/h 3mph /  4.8km/h 88% 0.00in /  0mm 0 W/m2
01:29 50.7 °F /  10.4 °C 47.3 °F /  8.5 °C 30.16in /  1021.2hPa WSW 2.8mph /  4.5km/h 6mph /  9.7km/h 88% 0.00in /  0mm 0 W/m2
01:34 50.9 °F /  10.5 °C 47.5 °F /  8.6 °C 30.16in /  1021.2hPa WSW 1.4mph /  2.3km/h 6mph /  9.7km/h 88% 0.00in /  0mm 0 W/m2
01:39 50.8 °F /  10.4 °C 47.4 °F /  8.6 °C 30.16in /  1021.2hPa WSW 1.4mph /  2.3km/h 5mph /  8km/h 88% 0.00in /  0mm 0 W/m2
01:44 50.7 °F /  10.4 °C 47.3 °F /  8.5 °C 30.16in /  1021.2hPa West 2.4mph /  3.9km/h 5mph /  8km/h 88% 0.00in /  0mm 0 W/m2
01:49 50.5 °F /  10.3 °C 47.1 °F /  8.4 °C 30.16in /  1021.2hPa West 2.4mph /  3.9km/h 4mph /  6.4km/h 88% 0.00in /  0mm 0 W/m2
01:54 50.4 °F /  10.2 °C 47 °F /  8.3 °C 30.16in /  1021.2hPa West 2mph /  3.2km/h 4mph /  6.4km/h 88% 0.00in /  0mm 0 W/m2
01:59 50.4 °F /  10.2 °C 46.9 °F /  8.3 °C 30.16in /  1021.2hPa West 1.8mph /  2.9km/h 3mph /  4.8km/h 88% 0.00in /  0mm 0 W/m2
02:04 50.4 °F /  10.2 °C 47.2 °F /  8.4 °C 30.16in /  1021.2hPa West 1.3mph /  2.1km/h 4mph /  6.4km/h 88.8% 0.00in /  0mm 0 W/m2
02:09 50.3 °F /  10.2 °C 47.2 °F /  8.4 °C 30.16in /  1021.2hPa West 1mph /  1.6km/h 2mph /  3.2km/h 89% 0.00in /  0mm 0 W/m2
02:14 50.4 °F /  10.2 °C 47.3 °F /  8.5 °C 30.16in /  1021.2hPa West 0.4mph /  0.6km/h 2mph /  3.2km/h 89% 0.00in /  0mm 0 W/m2
02:19 50.4 °F /  10.2 °C 47.3 °F /  8.5 °C 30.16in /  1021.2hPa West 1mph /  1.6km/h 2mph /  3.2km/h 89% 0.00in /  0mm 0 W/m2
02:24 50.2 °F /  10.1 °C 47.1 °F /  8.4 °C 30.16in /  1021.2hPa West 0.4mph /  0.6km/h 3mph /  4.8km/h 89% 0.00in /  0mm 0 W/m2
02:29 50.1 °F /  10.1 °C 47 °F /  8.3 °C 30.16in /  1021.2hPa West 1.6mph /  2.6km/h 3mph /  4.8km/h 89% 0.00in /  0mm 0 W/m2
02:34 50 °F /  10 °C 47 °F /  8.3 °C 30.16in /  1021.2hPa West 3.1mph /  5km/h 5mph /  8km/h 89% 0.00in /  0mm 0 W/m2
02:39 50.2 °F /  10.1 °C 47.1 °F /  8.4 °C 30.16in /  1021.2hPa WSW 2.2mph /  3.5km/h 4mph /  6.4km/h 89% 0.00in /  0mm 0 W/m2
02:44 50.4 °F /  10.2 °C 47.4 °F /  8.6 °C 30.16in /  1021.2hPa WSW 2mph /  3.2km/h 8mph /  12.9km/h 89% 0.00in /  0mm 0 W/m2
02:49 50.5 °F /  10.3 °C 47.5 °F /  8.6 °C 30.16in /  1021.2hPa WSW 0.8mph /  1.3km/h 3mph /  4.8km/h 89% 0.00in /  0mm 0 W/m2
02:54 50.5 °F /  10.3 °C 47.5 °F /  8.6 °C 30.16in /  1021.2hPa WSW 0.4mph /  0.6km/h 2mph /  3.2km/h 89% 0.00in /  0mm 0 W/m2
02:59 50.4 °F /  10.2 °C 47.4 °F /  8.6 °C 30.16in /  1021.2hPa WSW 0.2mph /  0.3km/h 1mph /  1.6km/h 89% 0.00in /  0mm 0 W/m2
03:04 50.4 °F /  10.2 °C 47.3 °F /  8.5 °C 30.16in /  1021.2hPa WSW 0.6mph /  1km/h 3mph /  4.8km/h 89% 0.00in /  0mm 0 W/m2
03:09 50.4 °F /  10.2 °C 47.3 °F /  8.5 °C 30.16in /  1021.2hPa West 1.3mph /  2.1km/h 4mph /  6.4km/h 89% 0.00in /  0mm 0 W/m2
03:14 50.4 °F /  10.2 °C 47.3 °F /  8.5 °C 30.16in /  1021.2hPa NNW 2mph /  3.2km/h 4mph /  6.4km/h 89% 0.00in /  0mm 0 W/m2
03:19 50.4 °F /  10.2 °C 47.3 °F /  8.5 °C 30.16in /  1021.2hPa NNW 2mph /  3.2km/h 4mph /  6.4km/h 89% 0.00in /  0mm 0 W/m2
03:24 50.4 °F /  10.2 °C 47.3 °F /  8.5 °C 30.16in /  1021.2hPa NW 3.3mph /  5.3km/h 6mph /  9.7km/h 89.2% 0.00in /  0mm 0 W/m2
03:29 50.4 °F /  10.2 °C 47.5 °F /  8.6 °C 30.16in /  1021.2hPa NW 1.9mph /  3.1km/h 5mph /  8km/h 90% 0.00in /  0mm 0 W/m2
03:34 50.4 °F /  10.2 °C 47.5 °F /  8.6 °C 30.16in /  1021.2hPa NW 1.8mph /  2.9km/h 4mph /  6.4km/h 90% 0.00in /  0mm 0 W/m2
03:39 50.4 °F /  10.2 °C 47.5 °F /  8.6 °C 30.16in /  1021.2hPa NW 3.7mph /  6km/h 5mph /  8km/h 90% 0.00in /  0mm 0 W/m2
03:44 50.4 °F /  10.2 °C 47.5 °F /  8.6 °C 30.16in /  1021.2hPa WNW 2.3mph /  3.7km/h 5mph /  8km/h 90% 0.00in /  0mm 0 W/m2
03:49 50.4 °F /  10.2 °C 47.5 °F /  8.6 °C 30.16in /  1021.2hPa WNW 1.6mph /  2.6km/h 4mph /  6.4km/h 90% 0.00in /  0mm 0 W/m2
03:54 50.4 °F /  10.2 °C 47.5 °F /  8.6 °C 30.16in /  1021.2hPa WNW 2.5mph /  4km/h 4mph /  6.4km/h 90% 0.00in /  0mm 0 W/m2
03:59 50.2 °F /  10.1 °C 47.3 °F /  8.5 °C 30.16in /  1021.2hPa WNW 1.6mph /  2.6km/h 4mph /  6.4km/h 90% 0.00in /  0mm 0 W/m2
04:04 50.1 °F /  10.1 °C 47.2 °F /  8.4 °C 30.16in /  1021.2hPa WNW 1.1mph /  1.8km/h 3mph /  4.8km/h 90% 0.00in /  0mm 0 W/m2
04:09 49.8 °F /  9.9 °C 46.9 °F /  8.3 °C 30.16in /  1021.2hPa WNW 1.8mph /  2.9km/h 3mph /  4.8km/h 90% 0.00in /  0mm 0 W/m2
04:14 49.8 °F /  9.9 °C 46.9 °F /  8.3 °C 30.16in /  1021.2hPa WNW 2.7mph /  4.3km/h 4mph /  6.4km/h 90% 0.00in /  0mm 0 W/m2
04:19 49.8 °F /  9.9 °C 46.9 °F /  8.3 °C 30.16in /  1021.2hPa WNW 2.5mph /  4km/h 4mph /  6.4km/h 90% 0.00in /  0mm 0 W/m2
04:24 49.6 °F /  9.8 °C 46.8 °F /  8.2 °C 30.16in /  1021.2hPa WNW 2.8mph /  4.5km/h 4mph /  6.4km/h 90% 0.00in /  0mm 0 W/m2
04:29 49.6 °F /  9.8 °C 46.8 °F /  8.2 °C 30.16in /  1021.2hPa WNW 2.6mph /  4.2km/h 5mph /  8km/h 90% 0.00in /  0mm 0 W/m2
04:34 49.5 °F /  9.7 °C 46.6 °F /  8.1 °C 30.16in /  1021.2hPa WNW 2.5mph /  4km/h 4mph /  6.4km/h 90% 0.00in /  0mm 0 W/m2
04:39 49.3 °F /  9.6 °C 46.4 °F /  8 °C 30.16in /  1021.2hPa WNW 1.7mph /  2.7km/h 5mph /  8km/h 90% 0.00in /  0mm 0 W/m2
04:44 49.3 °F /  9.6 °C 46.4 °F /  8 °C 30.16in /  1021.2hPa WNW 2.6mph /  4.2km/h 4mph /  6.4km/h 90% 0.00in /  0mm 0 W/m2
04:49 49.3 °F /  9.6 °C 46.4 °F /  8 °C 30.16in /  1021.2hPa WNW 2.9mph /  4.7km/h 5mph /  8km/h 90% 0.00in /  0mm 0 W/m2
04:54 49.5 °F /  9.7 °C 46.6 °F /  8.1 °C 30.16in /  1021.2hPa WNW 3.7mph /  6km/h 6mph /  9.7km/h 90% 0.00in /  0mm 0 W/m2
04:59 49.6 °F /  9.8 °C 46.8 °F /  8.2 °C 30.16in /  1021.2hPa West 3.2mph /  5.1km/h 6mph /  9.7km/h 90% 0.00in /  0mm 0 W/m2
05:04 49.5 °F /  9.7 °C 46.7 °F /  8.2 °C 30.16in /  1021.2hPa WNW 2.9mph /  4.7km/h 6mph /  9.7km/h 90% 0.00in /  0mm 0 W/m2
05:09 49.5 °F /  9.7 °C 46.6 °F /  8.1 °C 30.16in /  1021.2hPa WNW 2.5mph /  4km/h 6mph /  9.7km/h 90% 0.00in /  0mm 0 W/m2
05:14 49.4 °F /  9.7 °C 46.5 °F /  8.1 °C 30.16in /  1021.2hPa WNW 2.7mph /  4.3km/h 4mph /  6.4km/h 90% 0.00in /  0mm 5 W/m2
05:19 49.3 °F /  9.6 °C 46.4 °F /  8 °C 30.16in /  1021.2hPa WNW 2.2mph /  3.5km/h 3mph /  4.8km/h 90% 0.00in /  0mm 7 W/m2
05:24 49.1 °F /  9.5 °C 46.2 °F /  7.9 °C 30.16in /  1021.2hPa WNW 1.6mph /  2.6km/h 3mph /  4.8km/h 90% 0.00in /  0mm 12 W/m2
05:29 49 °F /  9.4 °C 46.1 °F /  7.8 °C 30.16in /  1021.2hPa WNW 2.9mph /  4.7km/h 4mph /  6.4km/h 90% 0.00in /  0mm 12 W/m2
05:34 48.9 °F /  9.4 °C 46 °F /  7.8 °C 30.16in /  1021.2hPa WNW 2.4mph /  3.9km/h 5mph /  8km/h 90% 0.00in /  0mm 14 W/m2
05:39 48.9 °F /  9.4 °C 46 °F /  7.8 °C 30.17in /  1021.6hPa WNW 2.1mph /  3.4km/h 4mph /  6.4km/h 90% 0.00in /  0mm 18 W/m2
05:44 48.9 °F /  9.4 °C 46 °F /  7.8 °C 30.17in /  1021.6hPa WNW 0.2mph /  0.3km/h 2mph /  3.2km/h 90% 0.00in /  0mm 21 W/m2
05:49 48.9 °F /  9.4 °C 46 °F /  7.8 °C 30.17in /  1021.6hPa Calm     90% 0.00in /  0mm 28 W/m2
05:54 48.9 °F /  9.4 °C 46 °F /  7.8 °C 30.17in /  1021.6hPa Calm     90% 0.00in /  0mm 30 W/m2
05:59 48.9 °F /  9.4 °C 46 °F /  7.8 °C 30.17in /  1021.6hPa Calm     90% 0.00in /  0mm 33 W/m2
06:04 48.9 °F /  9.4 °C 46 °F /  7.8 °C 30.17in /  1021.6hPa WNW 0.6mph /  1km/h 2mph /  3.2km/h 90% 0.00in /  0mm 39 W/m2
06:09 48.9 °F /  9.4 °C 46 °F /  7.8 °C 30.17in /  1021.6hPa WNW 0.2mph /  0.3km/h 2mph /  3.2km/h 90% 0.00in /  0mm 49 W/m2
06:14 48.9 °F /  9.4 °C 46 °F /  7.8 °C 30.18in /  1021.9hPa WNW 0.2mph /  0.3km/h 2mph /  3.2km/h 90% 0.00in /  0mm 54 W/m2
06:19 48.9 °F /  9.4 °C 46 °F /  7.8 °C 30.18in /  1021.9hPa WNW 0.5mph /  0.8km/h 2mph /  3.2km/h 90% 0.00in /  0mm 54 W/m2
06:24 49.2 °F /  9.6 °C 46.5 °F /  8.1 °C 30.18in /  1021.9hPa WNW 0.2mph /  0.3km/h 2mph /  3.2km/h 90.4% 0.00in /  0mm 54 W/m2
06:29 49.3 °F /  9.6 °C 46.8 °F /  8.2 °C 30.18in /  1021.9hPa Calm   2mph /  3.2km/h 91% 0.00in /  0mm 49 W/m2
06:34 49.5 °F /  9.7 °C 46.9 °F /  8.3 °C 30.18in /  1021.9hPa WNW 0.2mph /  0.3km/h 1mph /  1.6km/h 91% 0.00in /  0mm 44 W/m2
06:39 49.5 °F /  9.7 °C 46.9 °F /  8.3 °C 30.18in /  1021.9hPa Calm   1mph /  1.6km/h 91% 0.00in /  0mm 51 W/m2
06:44 49.6 °F /  9.8 °C 47.1 °F /  8.4 °C 30.18in /  1021.9hPa WNW 0.4mph /  0.6km/h 2mph /  3.2km/h 91% 0.00in /  0mm 53 W/m2
06:49 49.7 °F /  9.8 °C 47.2 °F /  8.4 °C 30.18in /  1021.9hPa WNW 1.3mph /  2.1km/h 3mph /  4.8km/h 91% 0.00in /  0mm 84 W/m2
06:54 49.9 °F /  9.9 °C 47.4 °F /  8.6 °C 30.19in /  1022.2hPa WNW 1.3mph /  2.1km/h 3mph /  4.8km/h 91% 0.00in /  0mm 90 W/m2
06:59 50.2 °F /  10.1 °C 47.7 °F /  8.7 °C 30.19in /  1022.2hPa WNW 1.6mph /  2.6km/h 4mph /  6.4km/h 91% 0.00in /  0mm 81 W/m2
07:04 50.3 °F /  10.2 °C 47.8 °F /  8.8 °C 30.19in /  1022.2hPa WNW 0.8mph /  1.3km/h 2mph /  3.2km/h 91% 0.00in /  0mm 84 W/m2
07:09 50.5 °F /  10.3 °C 47.7 °F /  8.7 °C 30.19in /  1022.2hPa WNW 2.5mph /  4km/h 4mph /  6.4km/h 90.4% 0.00in /  0mm 125 W/m2
07:14 50.5 °F /  10.3 °C 47.7 °F /  8.7 °C 30.19in /  1022.2hPa West 3.2mph /  5.1km/h 5mph /  8km/h 90% 0.00in /  0mm 144 W/m2
07:19 50.9 °F /  10.5 °C 48 °F /  8.9 °C 30.19in /  1022.2hPa West 2.9mph /  4.7km/h 5mph /  8km/h 90% 0.00in /  0mm 179 W/m2
07:24 51.1 °F /  10.6 °C 48.2 °F /  9 °C 30.19in /  1022.2hPa West 1.1mph /  1.8km/h 4mph /  6.4km/h 90% 0.00in /  0mm 134 W/m2
07:29 51.3 °F /  10.7 °C 48.4 °F /  9.1 °C 30.19in /  1022.2hPa West 1.3mph /  2.1km/h 3mph /  4.8km/h 90% 0.00in /  0mm 127 W/m2
07:34 51.4 °F /  10.8 °C 48.6 °F /  9.2 °C 30.19in /  1022.2hPa West 1.6mph /  2.6km/h 4mph /  6.4km/h 90% 0.00in /  0mm 163 W/m2
07:39 51.6 °F /  10.9 °C 48.6 °F /  9.2 °C 30.19in /  1022.2hPa West 1mph /  1.6km/h 2mph /  3.2km/h 89.2% 0.00in /  0mm 297 W/m2
07:44 52.1 °F /  11.2 °C 49.1 °F /  9.5 °C 30.19in /  1022.2hPa West 0.6mph /  1km/h 2mph /  3.2km/h 89% 0.00in /  0mm 311 W/m2
07:49 52.4 °F /  11.3 °C 49.4 °F /  9.7 °C 30.19in /  1022.2hPa West 0.9mph /  1.4km/h 3mph /  4.8km/h 89% 0.00in /  0mm 232 W/m2
07:54 52.6 °F /  11.4 °C 49.2 °F /  9.6 °C 30.19in /  1022.2hPa West 1.2mph /  1.9km/h 3mph /  4.8km/h 88% 0.00in /  0mm 185 W/m2
07:59 52.9 °F /  11.6 °C 49.5 °F /  9.7 °C 30.19in /  1022.2hPa West 2.5mph /  4km/h 4mph /  6.4km/h 88% 0.00in /  0mm 267 W/m2
08:04 53.3 °F /  11.8 °C 49.8 °F /  9.9 °C 30.19in /  1022.2hPa West 2.1mph /  3.4km/h 4mph /  6.4km/h 87.6% 0.00in /  0mm 336 W/m2
08:09 53.9 °F /  12.2 °C 50.2 °F /  10.1 °C 30.19in /  1022.2hPa West 3.7mph /  6km/h 9mph /  14.5km/h 87% 0.00in /  0mm 390 W/m2
08:14 54.1 °F /  12.3 °C 49.8 °F /  9.9 °C 30.19in /  1022.2hPa WSW 3.6mph /  5.8km/h 9mph /  14.5km/h 85.6% 0.00in /  0mm 290 W/m2
08:19 54.7 °F /  12.6 °C 50.2 °F /  10.1 °C 30.19in /  1022.2hPa West 5.8mph /  9.3km/h 9mph /  14.5km/h 85% 0.00in /  0mm 230 W/m2
08:24 54.7 °F /  12.6 °C 50 °F /  10 °C 30.19in /  1022.2hPa West 4.8mph /  7.7km/h 9mph /  14.5km/h 84% 0.00in /  0mm 244 W/m2
08:29 54.8 °F /  12.7 °C 50.1 °F /  10.1 °C 30.19in /  1022.2hPa West 5.6mph /  9km/h 8mph /  12.9km/h 84% 0.00in /  0mm 243 W/m2
08:34 55 °F /  12.8 °C 50.1 °F /  10.1 °C 30.19in /  1022.2hPa West 6mph /  9.7km/h 11mph /  17.7km/h 83.3% 0.00in /  0mm 250 W/m2
08:39 55 °F /  12.8 °C 50 °F /  10 °C 30.19in /  1022.2hPa WSW 3.2mph /  5.1km/h 9mph /  14.5km/h 83% 0.00in /  0mm 255 W/m2
08:44 55.1 °F /  12.8 °C 49.7 °F /  9.8 °C 30.19in /  1022.2hPa WSW 5.2mph /  8.4km/h 10mph /  16.1km/h 82% 0.00in /  0mm 239 W/m2
08:49 55.2 °F /  12.9 °C 49.8 °F /  9.9 °C 30.19in /  1022.2hPa West 4.9mph /  7.9km/h 8mph /  12.9km/h 82% 0.00in /  0mm 334 W/m2
08:54 55.7 °F /  13.2 °C 50 °F /  10 °C 30.19in /  1022.2hPa SW 6.2mph /  10km/h 10mph /  16.1km/h 81.2% 0.00in /  0mm 308 W/m2
08:59 55.8 °F /  13.2 °C 49.8 °F /  9.9 °C 30.19in /  1022.2hPa WSW 6.6mph /  10.6km/h 13mph /  20.9km/h 80.6% 0.00in /  0mm 292 W/m2
09:04 55.6 °F /  13.1 °C 49.5 °F /  9.7 °C 30.20in /  1022.6hPa WSW 7.4mph /  11.9km/h 13mph /  20.9km/h 80% 0.00in /  0mm 278 W/m2
09:09 55.7 °F /  13.2 °C 49.6 °F /  9.8 °C 30.20in /  1022.6hPa WSW 9.5mph /  15.3km/h 13mph /  20.9km/h 80% 0.00in /  0mm 297 W/m2
09:14 55.8 °F /  13.2 °C 49.3 °F /  9.6 °C 30.20in /  1022.6hPa West 5.5mph /  8.9km/h 11mph /  17.7km/h 79% 0.00in /  0mm 288 W/m2
09:19 55.8 °F /  13.2 °C 49.3 °F /  9.6 °C 30.20in /  1022.6hPa WSW 7.6mph /  12.2km/h 13mph /  20.9km/h 79% 0.00in /  0mm 287 W/m2
09:24 55.8 °F /  13.2 °C 49.4 °F /  9.7 °C 30.21in /  1022.9hPa WSW 7.6mph /  12.2km/h 14mph /  22.5km/h 79% 0.00in /  0mm 283 W/m2
09:29 55.9 °F /  13.3 °C 49.5 °F /  9.7 °C 30.21in /  1022.9hPa WSW 6.2mph /  10km/h 13mph /  20.9km/h 79% 0.00in /  0mm 510 W/m2
09:34 56.1 °F /  13.4 °C 49.7 °F /  9.8 °C 30.21in /  1022.9hPa West 7.2mph /  11.6km/h 14mph /  22.5km/h 79% 0.00in /  0mm 541 W/m2
09:39 56.3 °F /  13.5 °C 49.8 °F /  9.9 °C 30.21in /  1022.9hPa West 6.7mph /  10.8km/h 14mph /  22.5km/h 79% 0.00in /  0mm 475 W/m2
09:44 56.5 °F /  13.6 °C 50 °F /  10 °C 30.21in /  1022.9hPa WSW 2.8mph /  4.5km/h 9mph /  14.5km/h 79% 0.00in /  0mm 476 W/m2
09:49 56.7 °F /  13.7 °C 49.8 °F /  9.9 °C 30.20in /  1022.6hPa SW 4.4mph /  7.1km/h 9mph /  14.5km/h 78.2% 0.00in /  0mm 413 W/m2
09:54 56.7 °F /  13.7 °C 49.8 °F /  9.9 °C 30.20in /  1022.6hPa WSW 6.5mph /  10.5km/h 14mph /  22.5km/h 78% 0.00in /  0mm 527 W/m2
09:59 56.7 °F /  13.7 °C 49.5 °F /  9.7 °C 30.20in /  1022.6hPa WSW 5.8mph /  9.3km/h 14mph /  22.5km/h 77% 0.00in /  0mm 596 W/m2
10:04 56.8 °F /  13.8 °C 49.5 °F /  9.7 °C 30.20in /  1022.6hPa SSW 6.3mph /  10.1km/h 13mph /  20.9km/h 76.8% 0.00in /  0mm 696 W/m2
10:09 56.8 °F /  13.8 °C 49.6 °F /  9.8 °C 30.20in /  1022.6hPa West 5.4mph /  8.7km/h 11mph /  17.7km/h 77% 0.00in /  0mm 387 W/m2
10:14 56.9 °F /  13.8 °C 49.2 °F /  9.6 °C 30.20in /  1022.6hPa WSW 8mph /  12.9km/h 14mph /  22.5km/h 75.6% 0.00in /  0mm 387 W/m2
10:19 56.9 °F /  13.8 °C 49.1 °F /  9.5 °C 30.20in /  1022.6hPa West 6.4mph /  10.3km/h 14mph /  22.5km/h 75.4% 0.00in /  0mm 425 W/m2
10:24 57 °F /  13.9 °C 49.3 °F /  9.6 °C 30.21in /  1022.9hPa WNW 4.8mph /  7.7km/h 10mph /  16.1km/h 75.4% 0.00in /  0mm 443 W/m2
10:29 57.6 °F /  14.2 °C 50 °F /  10 °C 30.20in /  1022.6hPa WSW 3.2mph /  5.1km/h 9mph /  14.5km/h 76% 0.00in /  0mm 717 W/m2
10:34 58.5 °F /  14.7 °C 50.5 °F /  10.3 °C 30.20in /  1022.6hPa West 5.4mph /  8.7km/h 11mph /  17.7km/h 75% 0.00in /  0mm 548 W/m2
10:39 57.8 °F /  14.3 °C 49.5 °F /  9.7 °C 30.21in /  1022.9hPa West 7.5mph /  12.1km/h 14mph /  22.5km/h 73.8% 0.00in /  0mm 378 W/m2
10:44 57.4 °F /  14.1 °C 49.1 °F /  9.5 °C 30.21in /  1022.9hPa WSW 7.6mph /  12.2km/h 14mph /  22.5km/h 74% 0.00in /  0mm 341 W/m2
10:49 57.3 °F /  14.1 °C 49.1 °F /  9.5 °C 30.21in /  1022.9hPa West 5.4mph /  8.7km/h 11mph /  17.7km/h 74.2% 0.00in /  0mm 313 W/m2
10:54 57.4 °F /  14.1 °C 49.3 °F /  9.6 °C 30.20in /  1022.6hPa West 6.4mph /  10.3km/h 11mph /  17.7km/h 74.6% 0.00in /  0mm 244 W/m2
10:59 57.2 °F /  14 °C 49.3 °F /  9.6 °C 30.20in /  1022.6hPa WSW 4.1mph /  6.6km/h 11mph /  17.7km/h 75% 0.00in /  0mm 279 W/m2
11:04 57.4 °F /  14.1 °C 49.5 °F /  9.7 °C 30.20in /  1022.6hPa West 5.4mph /  8.7km/h 9mph /  14.5km/h 75% 0.00in /  0mm 404 W/m2
11:09 57.4 °F /  14.1 °C 49.4 °F /  9.7 °C 30.20in /  1022.6hPa West 5.1mph /  8.2km/h 12mph /  19.3km/h 74.8% 0.00in /  0mm 408 W/m2
11:14 57.4 °F /  14.1 °C 49.5 °F /  9.7 °C 30.20in /  1022.6hPa West 4.5mph /  7.2km/h 11mph /  17.7km/h 75% 0.00in /  0mm 369 W/m2
11:19 57.7 °F /  14.3 °C 49.8 °F /  9.9 °C 30.20in /  1022.6hPa West 4.7mph /  7.6km/h 10mph /  16.1km/h 75% 0.00in /  0mm 369 W/m2
11:24 57.6 °F /  14.2 °C 49.3 °F /  9.6 °C 30.20in /  1022.6hPa West 3.8mph /  6.1km/h 9mph /  14.5km/h 74% 0.00in /  0mm 408 W/m2
11:29 57.7 °F /  14.3 °C 49.5 °F /  9.7 °C 30.20in /  1022.6hPa West 4.4mph /  7.1km/h 9mph /  14.5km/h 74.2% 0.00in /  0mm 526 W/m2
11:34 58.4 °F /  14.7 °C 50 °F /  10 °C 30.20in /  1022.6hPa West 5mph /  8km/h 9mph /  14.5km/h 73.8% 0.00in /  0mm 800 W/m2
11:39 58.5 °F /  14.7 °C 49.5 °F /  9.7 °C 30.20in /  1022.6hPa West 4.9mph /  7.9km/h 11mph /  17.7km/h 72% 0.00in /  0mm 482 W/m2
11:44 58.7 °F /  14.8 °C 49.5 °F /  9.7 °C 30.20in /  1022.6hPa West 6.6mph /  10.6km/h 12mph /  19.3km/h 71.2% 0.00in /  0mm 954 W/m2
11:49 58.6 °F /  14.8 °C 49.4 °F /  9.7 °C 30.20in /  1022.6hPa West 6.5mph /  10.5km/h 10mph /  16.1km/h 71.3% 0.00in /  0mm 865 W/m2
11:54 59 °F /  15 °C 49.7 °F /  9.8 °C 30.20in /  1022.6hPa SW 6.8mph /  10.9km/h 11mph /  17.7km/h 71.2% 0.00in /  0mm 962 W/m2
11:59 59.5 °F /  15.3 °C 49.6 °F /  9.8 °C 30.20in /  1022.6hPa SW 8.6mph /  13.8km/h 13mph /  20.9km/h 69.8% 0.00in /  0mm 1035 W/m2
12:04 59.7 °F /  15.4 °C 49.9 °F /  9.9 °C 30.19in /  1022.2hPa SW 5.4mph /  8.7km/h 10mph /  16.1km/h 69.8% 0.00in /  0mm 1035 W/m2
12:09 59.9 °F /  15.5 °C 49.2 °F /  9.6 °C 30.19in /  1022.2hPa West 4.7mph /  7.6km/h 14mph /  22.5km/h 67.8% 0.00in /  0mm 986 W/m2
12:14 60.2 °F /  15.7 °C 49.2 °F /  9.6 °C 30.19in /  1022.2hPa WSW 6.2mph /  10km/h 13mph /  20.9km/h 67% 0.00in /  0mm 1081 W/m2
12:19 60.7 °F /  15.9 °C 49.6 °F /  9.8 °C 30.19in /  1022.2hPa WSW 4.2mph /  6.8km/h 11mph /  17.7km/h 66.6% 0.00in /  0mm 1081 W/m2
12:24 61 °F /  16.1 °C 49.6 °F /  9.8 °C 30.19in /  1022.2hPa West 6mph /  9.7km/h 10mph /  16.1km/h 66.2% 0.00in /  0mm 1007 W/m2
12:29 60.8 °F /  16 °C 49.6 °F /  9.8 °C 30.19in /  1022.2hPa West 7.3mph /  11.7km/h 12mph /  19.3km/h 66.5% 0.00in /  0mm 694 W/m2
12:34 60.6 °F /  15.9 °C 49.1 °F /  9.5 °C 30.19in /  1022.2hPa WSW 5.8mph /  9.3km/h 11mph /  17.7km/h 65.6% 0.00in /  0mm 997 W/m2
12:39 61.1 °F /  16.2 °C 48.9 °F /  9.4 °C 30.18in /  1021.9hPa WSW 7.5mph /  12.1km/h 13mph /  20.9km/h 64.2% 0.00in /  0mm 1041 W/m2
12:44 61.5 °F /  16.4 °C 49.7 °F /  9.8 °C 30.18in /  1021.9hPa WSW 6.6mph /  10.6km/h 11mph /  17.7km/h 65.4% 0.00in /  0mm 976 W/m2
12:49 61.4 °F /  16.3 °C 49.2 °F /  9.6 °C 30.18in /  1021.9hPa West 5.3mph /  8.5km/h 12mph /  19.3km/h 64.2% 0.00in /  0mm 960 W/m2
12:54 61.8 °F /  16.6 °C 49.5 °F /  9.7 °C 30.18in /  1021.9hPa West 6.6mph /  10.6km/h 12mph /  19.3km/h 64.2% 0.00in /  0mm 1021 W/m2
12:59 62.4 °F /  16.9 °C 49.6 °F /  9.8 °C 30.18in /  1021.9hPa West 2.8mph /  4.5km/h 10mph /  16.1km/h 62.8% 0.00in /  0mm 1062 W/m2
13:04 62.4 °F /  16.9 °C 49.2 °F /  9.6 °C 30.18in /  1021.9hPa West 6.4mph /  10.3km/h 10mph /  16.1km/h 62% 0.00in /  0mm 297 W/m2
13:09 61.5 °F /  16.4 °C 48.9 °F /  9.4 °C 30.18in /  1021.9hPa West 5.8mph /  9.3km/h 11mph /  17.7km/h 63.2% 0.00in /  0mm 1055 W/m2
13:14 61.6 °F /  16.4 °C 48.6 °F /  9.2 °C 30.18in /  1021.9hPa WNW 5mph /  8km/h 11mph /  17.7km/h 62.4% 0.00in /  0mm 1055 W/m2
13:19 62.6 °F /  17 °C 48.8 °F /  9.3 °C 30.18in /  1021.9hPa West 5.4mph /  8.7km/h 11mph /  17.7km/h 60.6% 0.00in /  0mm 960 W/m2
13:24 62.5 °F /  16.9 °C 48.3 °F /  9.1 °C 30.18in /  1021.9hPa West 6.5mph /  10.5km/h 12mph /  19.3km/h 59.8% 0.00in /  0mm 1071 W/m2
13:29 62.5 °F /  16.9 °C 48.5 °F /  9.2 °C 30.18in /  1021.9hPa West 6.8mph /  10.9km/h 13mph /  20.9km/h 60.2% 0.00in /  0mm 1048 W/m2
13:34 62.7 °F /  17.1 °C 48.1 °F /  8.9 °C 30.18in /  1021.9hPa West 7.1mph /  11.4km/h 13mph /  20.9km/h 59% 0.00in /  0mm 1027 W/m2
13:38 62.9 °F /  17.2 °C 48.1 °F /  8.9 °C 30.17in /  1021.6hPa WSW 6mph /  9.7km/h 10mph /  16.1km/h 58.5% 0.00in /  0mm 926 W/m2
13:44 62.2 °F /  16.8 °C 47.9 °F /  8.8 °C 30.18in /  1021.9hPa WNW 5.6mph /  9km/h 13mph /  20.9km/h 59.6% 0.00in /  0mm 345 W/m2
13:49 62.5 °F /  16.9 °C 48.7 °F /  9.3 °C 30.17in /  1021.6hPa West 5.4mph /  8.7km/h 12mph /  19.3km/h 60.6% 0.00in /  0mm 1081 W/m2
13:54 62.4 °F /  16.9 °C 48.6 °F /  9.2 °C 30.17in /  1021.6hPa West 8.2mph /  13.2km/h 17mph /  27.4km/h 60.6% 0.00in /  0mm 427 W/m2
13:59 62.1 °F /  16.7 °C 48.6 °F /  9.2 °C 30.18in /  1021.9hPa West 5.8mph /  9.3km/h 12mph /  19.3km/h 61.4% 0.00in /  0mm 360 W/m2
14:04 62.7 °F /  17.1 °C 48.6 °F /  9.2 °C 30.17in /  1021.6hPa NW 6.4mph /  10.3km/h 11mph /  17.7km/h 60% 0.00in /  0mm 1009 W/m2
14:09 63.6 °F /  17.6 °C 49.6 °F /  9.8 °C 30.17in /  1021.6hPa West 7.2mph /  11.6km/h 14mph /  22.5km/h 60.4% 0.00in /  0mm 995 W/m2
14:14 63.5 °F /  17.5 °C 49.4 °F /  9.7 °C 30.17in /  1021.6hPa WNW 6.8mph /  10.9km/h 14mph /  22.5km/h 60% 0.00in /  0mm 1018 W/m2
14:19 63.1 °F /  17.3 °C 49.1 °F /  9.5 °C 30.17in /  1021.6hPa NW 6.1mph /  9.8km/h 11mph /  17.7km/h 60% 0.00in /  0mm 1013 W/m2
14:24 63.7 °F /  17.6 °C 48.9 °F /  9.4 °C 30.17in /  1021.6hPa West 6mph /  9.7km/h 13mph /  20.9km/h 58.6% 0.00in /  0mm 1020 W/m2
14:29 64.3 °F /  17.9 °C 49.2 °F /  9.6 °C 30.17in /  1021.6hPa WSW 6mph /  9.7km/h 11mph /  17.7km/h 58% 0.00in /  0mm 1020 W/m2
14:34 64.4 °F /  18 °C 48.9 °F /  9.4 °C 30.17in /  1021.6hPa West 7.4mph /  11.9km/h 16mph /  25.7km/h 57.2% 0.00in /  0mm 888 W/m2
14:39 63.9 °F /  17.7 °C 49.1 °F /  9.5 °C 30.17in /  1021.6hPa WNW 4.5mph /  7.2km/h 16mph /  25.7km/h 58.6% 0.00in /  0mm 900 W/m2
14:44 64 °F /  17.8 °C 49 °F /  9.4 °C 30.17in /  1021.6hPa West 8.5mph /  13.7km/h 14mph /  22.5km/h 58.3% 0.00in /  0mm 867 W/m2
14:49 63.4 °F /  17.4 °C 48.6 °F /  9.2 °C 30.17in /  1021.6hPa WNW 9.6mph /  15.4km/h 14mph /  22.5km/h 58.4% 0.00in /  0mm 891 W/m2
14:54 63.2 °F /  17.3 °C 48.2 °F /  9 °C 30.17in /  1021.6hPa West 7.6mph /  12.2km/h 13mph /  20.9km/h 58.2% 0.00in /  0mm 867 W/m2
14:59 64 °F /  17.8 °C 48.2 °F /  9 °C 30.17in /  1021.6hPa WSW 7.8mph /  12.6km/h 15mph /  24.1km/h 56.4% 0.00in /  0mm 675 W/m2
15:04 63.7 °F /  17.6 °C 47.8 °F /  8.8 °C 30.17in /  1021.6hPa West 8.2mph /  13.2km/h 19mph /  30.6km/h 56.2% 0.00in /  0mm 896 W/m2
15:09 63.8 °F /  17.7 °C 49 °F /  9.4 °C 30.17in /  1021.6hPa West 5mph /  8km/h 19mph /  30.6km/h 58.6% 0.00in /  0mm 884 W/m2
15:14 64.7 °F /  18.2 °C 49.5 °F /  9.7 °C 30.17in /  1021.6hPa WSW 5.3mph /  8.5km/h 13mph /  20.9km/h 57.8% 0.00in /  0mm 856 W/m2
15:19 64.1 °F /  17.8 °C 48.4 °F /  9.1 °C 30.16in /  1021.2hPa West 5mph /  8km/h 14mph /  22.5km/h 56.6% 0.00in /  0mm 664 W/m2
15:24 64.2 °F /  17.9 °C 48.7 °F /  9.3 °C 30.16in /  1021.2hPa WSW 8.4mph /  13.5km/h 16mph /  25.7km/h 57% 0.00in /  0mm 976 W/m2
15:29 64.2 °F /  17.9 °C 48.8 °F /  9.3 °C 30.16in /  1021.2hPa WSW 8.4mph /  13.5km/h 13mph /  20.9km/h 57% 0.00in /  0mm 805 W/m2
15:34 64.2 °F /  17.9 °C 48.9 °F /  9.4 °C 30.16in /  1021.2hPa West 7.4mph /  11.9km/h 15mph /  24.1km/h 57.4% 0.00in /  0mm 814 W/m2
15:39 64.1 °F /  17.8 °C 49 °F /  9.4 °C 30.16in /  1021.2hPa WNW 7mph /  11.3km/h 13mph /  20.9km/h 57.8% 0.00in /  0mm 861 W/m2
15:44 64.6 °F /  18.1 °C 49.3 °F /  9.6 °C 30.16in /  1021.2hPa West 4.8mph /  7.7km/h 12mph /  19.3km/h 57.6% 0.00in /  0mm 863 W/m2
15:49 64.7 °F /  18.2 °C 49.1 °F /  9.5 °C 30.16in /  1021.2hPa West 9.2mph /  14.8km/h 15mph /  24.1km/h 57% 0.00in /  0mm 810 W/m2
15:54 64.1 °F /  17.8 °C 49.1 °F /  9.5 °C 30.16in /  1021.2hPa WSW 7.3mph /  11.7km/h 15mph /  24.1km/h 58.2% 0.00in /  0mm 758 W/m2
15:59 64.5 °F /  18.1 °C 49.6 °F /  9.8 °C 30.16in /  1021.2hPa WSW 5.4mph /  8.7km/h 13mph /  20.9km/h 58.4% 0.00in /  0mm 737 W/m2
16:04 64.7 °F /  18.2 °C 49.7 °F /  9.8 °C 30.16in /  1021.2hPa West 6.3mph /  10.1km/h 15mph /  24.1km/h 58.4% 0.00in /  0mm 710 W/m2
16:09 64.3 °F /  17.9 °C 49.7 °F /  9.8 °C 30.16in /  1021.2hPa West 5.5mph /  8.9km/h 10mph /  16.1km/h 59% 0.00in /  0mm 663 W/m2
16:14 64.8 °F /  18.2 °C 50.2 °F /  10.1 °C 30.15in /  1020.9hPa WNW 9.2mph /  14.8km/h 14mph /  22.5km/h 59% 0.00in /  0mm 635 W/m2
16:19 64.6 °F /  18.1 °C 50.3 °F /  10.2 °C 30.15in /  1020.9hPa WNW 6.5mph /  10.5km/h 15mph /  24.1km/h 60% 0.00in /  0mm 677 W/m2
16:24 64.2 °F /  17.9 °C 50.4 °F /  10.2 °C 30.15in /  1020.9hPa WNW 7.7mph /  12.4km/h 12mph /  19.3km/h 60.8% 0.00in /  0mm 668 W/m2
16:29 64.1 °F /  17.8 °C 50.4 °F /  10.2 °C 30.15in /  1020.9hPa WNW 8.4mph /  13.5km/h 13mph /  20.9km/h 60.8% 0.00in /  0mm 638 W/m2
16:34 64 °F /  17.8 °C 50.5 °F /  10.3 °C 30.15in /  1020.9hPa West 8mph /  12.9km/h 13mph /  20.9km/h 61.6% 0.00in /  0mm 545 W/m2
16:39 64 °F /  17.8 °C 50.6 °F /  10.3 °C 30.15in /  1020.9hPa WNW 6mph /  9.7km/h 13mph /  20.9km/h 61.8% 0.00in /  0mm 650 W/m2
16:44 63.9 °F /  17.7 °C 50.5 °F /  10.3 °C 30.15in /  1020.9hPa West 7.3mph /  11.7km/h 12mph /  19.3km/h 62% 0.00in /  0mm 548 W/m2
16:49 64 °F /  17.8 °C 51.1 °F /  10.6 °C 30.15in /  1020.9hPa WNW 8.6mph /  13.8km/h 13mph /  20.9km/h 62.8% 0.00in /  0mm 596 W/m2
16:54 63.8 °F /  17.7 °C 51 °F /  10.6 °C 30.15in /  1020.9hPa WNW 5.3mph /  8.5km/h 13mph /  20.9km/h 63% 0.00in /  0mm 615 W/m2
16:59 64 °F /  17.8 °C 51.1 °F /  10.6 °C 30.15in /  1020.9hPa West 8.4mph /  13.5km/h 14mph /  22.5km/h 62.6% 0.00in /  0mm 635 W/m2
17:04 64 °F /  17.8 °C 51.1 °F /  10.6 °C 30.15in /  1020.9hPa WSW 7mph /  11.3km/h 12mph /  19.3km/h 62.6% 0.00in /  0mm 552 W/m2
17:09 63.9 °F /  17.7 °C 51.1 °F /  10.6 °C 30.15in /  1020.9hPa West 4.5mph /  7.2km/h 12mph /  19.3km/h 62.8% 0.00in /  0mm 610 W/m2
17:14 64.3 °F /  17.9 °C 51.3 °F /  10.7 °C 30.14in /  1020.5hPa West 7.2mph /  11.6km/h 13mph /  20.9km/h 62.6% 0.00in /  0mm 510 W/m2
17:19 64.5 °F /  18.1 °C 51.6 °F /  10.9 °C 30.14in /  1020.5hPa West 5.8mph /  9.3km/h 8mph /  12.9km/h 63% 0.00in /  0mm 366 W/m2
17:24 64.2 °F /  17.9 °C 51.4 °F /  10.8 °C 30.14in /  1020.5hPa NW 4.8mph /  7.7km/h 9mph /  14.5km/h 63% 0.00in /  0mm 355 W/m2
17:29 64 °F /  17.8 °C 51.3 °F /  10.7 °C 30.14in /  1020.5hPa WNW 6.1mph /  9.8km/h 9mph /  14.5km/h 63% 0.00in /  0mm 380 W/m2
17:34 63.8 °F /  17.7 °C 51.2 °F /  10.7 °C 30.14in /  1020.5hPa West 4.6mph /  7.4km/h 9mph /  14.5km/h 63.6% 0.00in /  0mm 278 W/m2
17:39 63.6 °F /  17.6 °C 51.2 °F /  10.7 °C 30.14in /  1020.5hPa West 4.5mph /  7.2km/h 9mph /  14.5km/h 64% 0.00in /  0mm 418 W/m2
17:44 63.7 °F /  17.6 °C 51.3 °F /  10.7 °C 30.14in /  1020.5hPa West 3.6mph /  5.8km/h 9mph /  14.5km/h 64% 0.00in /  0mm 490 W/m2
17:49 64 °F /  17.8 °C 51.5 °F /  10.8 °C 30.13in /  1020.2hPa West 6.2mph /  10km/h 10mph /  16.1km/h 63.8% 0.00in /  0mm 510 W/m2
17:54 64 °F /  17.8 °C 51.2 °F /  10.7 °C 30.13in /  1020.2hPa West 3.2mph /  5.1km/h 10mph /  16.1km/h 62.8% 0.00in /  0mm 459 W/m2
17:59 64.1 °F /  17.8 °C 51.4 °F /  10.8 °C 30.13in /  1020.2hPa WNW 4.2mph /  6.8km/h 10mph /  16.1km/h 63.2% 0.00in /  0mm 483 W/m2
18:04 64.4 °F /  18 °C 51.6 °F /  10.9 °C 30.13in /  1020.2hPa WNW 7.1mph /  11.4km/h 11mph /  17.7km/h 63.2% 0.00in /  0mm 438 W/m2
18:09 64.2 °F /  17.9 °C 51.3 °F /  10.7 °C 30.13in /  1020.2hPa WNW 5.8mph /  9.3km/h 9mph /  14.5km/h 62.8% 0.00in /  0mm 367 W/m2
18:14 63.8 °F /  17.7 °C 51.2 °F /  10.7 °C 30.13in /  1020.2hPa WNW 6.8mph /  10.9km/h 10mph /  16.1km/h 63.4% 0.00in /  0mm 381 W/m2
18:19 64 °F /  17.8 °C 51.3 °F /  10.7 °C 30.12in /  1019.9hPa West 5mph /  8km/h 9mph /  14.5km/h 63.5% 0.00in /  0mm 329 W/m2
18:24 63.8 °F /  17.7 °C 51 °F /  10.6 °C 30.12in /  1019.9hPa West 7.1mph /  11.4km/h 12mph /  19.3km/h 63% 0.00in /  0mm 336 W/m2
18:29 63.3 °F /  17.4 °C 50.8 °F /  10.4 °C 30.12in /  1019.9hPa West 4.7mph /  7.6km/h 9mph /  14.5km/h 63.8% 0.00in /  0mm 206 W/m2
18:34 63 °F /  17.2 °C 50.6 °F /  10.3 °C 30.12in /  1019.9hPa West 5.2mph /  8.4km/h 10mph /  16.1km/h 64% 0.00in /  0mm 264 W/m2
18:39 63.1 °F /  17.3 °C 50.9 °F /  10.5 °C 30.12in /  1019.9hPa West 4.9mph /  7.9km/h 9mph /  14.5km/h 64.4% 0.00in /  0mm 411 W/m2
18:43 63.5 °F /  17.5 °C 51.1 °F /  10.6 °C 30.12in /  1019.9hPa West 4.7mph /  7.6km/h 9mph /  14.5km/h 64% 0.00in /  0mm 367 W/m2
18:49 63.6 °F /  17.6 °C 51.2 °F /  10.7 °C 30.12in /  1019.9hPa WNW 4.4mph /  7.1km/h 8mph /  12.9km/h 64% 0.00in /  0mm 392 W/m2
18:54 63.9 °F /  17.7 °C 51.3 °F /  10.7 °C 30.12in /  1019.9hPa West 5.6mph /  9km/h 9mph /  14.5km/h 63.6% 0.00in /  0mm 357 W/m2
18:59 63.9 °F /  17.7 °C 51.3 °F /  10.7 °C 30.12in /  1019.9hPa West 4.5mph /  7.2km/h 8mph /  12.9km/h 63.6% 0.00in /  0mm 250 W/m2
19:04 63.7 °F /  17.6 °C 51.3 °F /  10.7 °C 30.12in /  1019.9hPa West 5.2mph /  8.4km/h 9mph /  14.5km/h 64% 0.00in /  0mm 250 W/m2
19:09 63.6 °F /  17.6 °C 51.2 °F /  10.7 °C 30.12in /  1019.9hPa West 4.8mph /  7.7km/h 10mph /  16.1km/h 64% 0.00in /  0mm 257 W/m2
19:14 63.7 °F /  17.6 °C 51.3 °F /  10.7 °C 30.12in /  1019.9hPa West 4.4mph /  7.1km/h 8mph /  12.9km/h 64% 0.00in /  0mm 246 W/m2
19:19 63.8 °F /  17.7 °C 51.3 °F /  10.7 °C 30.12in /  1019.9hPa West 4.5mph /  7.2km/h 7mph /  11.3km/h 64% 0.00in /  0mm 225 W/m2
19:24 63.9 °F /  17.7 °C 51.4 °F /  10.8 °C 30.12in /  1019.9hPa West 4.5mph /  7.2km/h 8mph /  12.9km/h 64% 0.00in /  0mm 200 W/m2
19:29 63.9 °F /  17.7 °C 51.3 °F /  10.7 °C 30.12in /  1019.9hPa West 4.3mph /  6.9km/h 6mph /  9.7km/h 63.4% 0.00in /  0mm 181 W/m2
19:34 63.4 °F /  17.4 °C 51 °F /  10.6 °C 30.12in /  1019.9hPa West 5.9mph /  9.5km/h 8mph /  12.9km/h 64% 0.00in /  0mm 162 W/m2
19:39 63.1 °F /  17.3 °C 50.6 °F /  10.3 °C 30.12in /  1019.9hPa West 5.3mph /  8.5km/h 8mph /  12.9km/h 64% 0.00in /  0mm 144 W/m2
19:44 63 °F /  17.2 °C 51 °F /  10.6 °C 30.12in /  1019.9hPa West 3.3mph /  5.3km/h 6mph /  9.7km/h 64.8% 0.00in /  0mm 128 W/m2
19:49 62.8 °F /  17.1 °C 50.9 °F /  10.5 °C 30.12in /  1019.9hPa West 4.2mph /  6.8km/h 7mph /  11.3km/h 65% 0.00in /  0mm 113 W/m2
19:54 62.7 °F /  17.1 °C 50.8 °F /  10.4 °C 30.12in /  1019.9hPa West 2.9mph /  4.7km/h 7mph /  11.3km/h 65% 0.00in /  0mm 100 W/m2
19:59 62.6 °F /  17 °C 50.7 °F /  10.4 °C 30.12in /  1019.9hPa West 4mph /  6.4km/h 8mph /  12.9km/h 65% 0.00in /  0mm 86 W/m2
20:03 62.2 °F /  16.8 °C 50.4 °F /  10.2 °C 30.12in /  1019.9hPa West 2.5mph /  4km/h 8mph /  12.9km/h 65% 0.00in /  0mm 65 W/m2
20:09 62 °F /  16.7 °C 50.2 °F /  10.1 °C 30.11in /  1019.5hPa West 3.5mph /  5.6km/h 6mph /  9.7km/h 65.4% 0.00in /  0mm 51 W/m2
20:14 61.7 °F /  16.5 °C 50.2 °F /  10.1 °C 30.12in /  1019.9hPa West 3.2mph /  5.1km/h 5mph /  8km/h 66% 0.00in /  0mm 63 W/m2
20:19 61.6 °F /  16.4 °C 50.1 °F /  10.1 °C 30.11in /  1019.5hPa West 3.2mph /  5.1km/h 6mph /  9.7km/h 66% 0.00in /  0mm 54 W/m2
20:24 61.5 °F /  16.4 °C 50 °F /  10 °C 30.11in /  1019.5hPa West 2.2mph /  3.5km/h 5mph /  8km/h 66% 0.00in /  0mm 35 W/m2
20:29 61.3 °F /  16.3 °C 50.2 °F /  10.1 °C 30.12in /  1019.9hPa West 3.3mph /  5.3km/h 5mph /  8km/h 66.8% 0.00in /  0mm 33 W/m2
20:34 61 °F /  16.1 °C 50.1 °F /  10.1 °C 30.12in /  1019.9hPa West 3.3mph /  5.3km/h 7mph /  11.3km/h 67.2% 0.00in /  0mm 28 W/m2
20:39 60.5 °F /  15.8 °C 49.9 °F /  9.9 °C 30.12in /  1019.9hPa West 3.4mph /  5.5km/h 7mph /  11.3km/h 68% 0.00in /  0mm 21 W/m2
20:44 60.4 °F /  15.8 °C 50.1 °F /  10.1 °C 30.12in /  1019.9hPa West 2.4mph /  3.9km/h 6mph /  9.7km/h 68.8% 0.00in /  0mm 14 W/m2
20:48 60.3 °F /  15.7 °C 50.1 °F /  10.1 °C 30.12in /  1019.9hPa West 2.7mph /  4.3km/h 5mph /  8km/h 69% 0.00in /  0mm 11 W/m2
20:54 60.1 °F /  15.6 °C 49.8 °F /  9.9 °C 30.12in /  1019.9hPa West 2.5mph /  4km/h 6mph /  9.7km/h 68.8% 0.00in /  0mm 7 W/m2
20:58 60.1 °F /  15.6 °C 49.8 °F /  9.9 °C 30.12in /  1019.9hPa West 1.7mph /  2.7km/h 4mph /  6.4km/h 69% 0.00in /  0mm 5 W/m2
21:04 59.8 °F /  15.4 °C 49.6 °F /  9.8 °C 30.12in /  1019.9hPa West 3.3mph /  5.3km/h 5mph /  8km/h 69% 0.00in /  0mm 0 W/m2
21:09 59.6 °F /  15.3 °C 49.8 °F /  9.9 °C 30.12in /  1019.9hPa West 1.8mph /  2.9km/h 5mph /  8km/h 69.8% 0.00in /  0mm 0 W/m2
21:14 59.5 °F /  15.3 °C 49.8 °F /  9.9 °C 30.11in /  1019.5hPa West 0.9mph /  1.4km/h 3mph /  4.8km/h 70% 0.00in /  0mm 0 W/m2
21:19 59.5 °F /  15.3 °C 50 °F /  10 °C 30.11in /  1019.5hPa West 0.4mph /  0.6km/h 2mph /  3.2km/h 70.6% 0.00in /  0mm 0 W/m2
21:24 59.5 °F /  15.3 °C 49.8 °F /  9.9 °C 30.12in /  1019.9hPa West 1.3mph /  2.1km/h 4mph /  6.4km/h 70.2% 0.00in /  0mm 0 W/m2
21:29 59.3 °F /  15.2 °C 49.8 °F /  9.9 °C 30.12in /  1019.9hPa West 1.6mph /  2.6km/h 4mph /  6.4km/h 70.8% 0.00in /  0mm 0 W/m2
21:34 58.9 °F /  14.9 °C 49.8 °F /  9.9 °C 30.12in /  1019.9hPa West 0.5mph /  0.8km/h 2mph /  3.2km/h 71.6% 0.00in /  0mm 0 W/m2
21:39 58.6 °F /  14.8 °C 49.6 °F /  9.8 °C 30.13in /  1020.2hPa West 2mph /  3.2km/h 3mph /  4.8km/h 72% 0.00in /  0mm 0 W/m2
21:44 58.5 °F /  14.7 °C 49.7 °F /  9.8 °C 30.13in /  1020.2hPa West 1.3mph /  2.1km/h 3mph /  4.8km/h 72.8% 0.00in /  0mm 0 W/m2
21:49 58.2 °F /  14.6 °C 49.6 °F /  9.8 °C 30.13in /  1020.2hPa West 2.2mph /  3.5km/h 4mph /  6.4km/h 73% 0.00in /  0mm 0 W/m2
21:54 57.9 °F /  14.4 °C 49.6 °F /  9.8 °C 30.13in /  1020.2hPa West 0.2mph /  0.3km/h 3mph /  4.8km/h 74% 0.00in /  0mm 0 W/m2
21:59 57.7 °F /  14.3 °C 49.6 °F /  9.8 °C 30.13in /  1020.2hPa West 0.8mph /  1.3km/h 3mph /  4.8km/h 74.4% 0.00in /  0mm 0 W/m2
22:04 57.5 °F /  14.2 °C 49.6 °F /  9.8 °C 30.13in /  1020.2hPa West 0.9mph /  1.4km/h 2mph /  3.2km/h 75% 0.00in /  0mm 0 W/m2
22:09 57.2 °F /  14 °C 49.5 °F /  9.7 °C 30.13in /  1020.2hPa West 2mph /  3.2km/h 3mph /  4.8km/h 75.8% 0.00in /  0mm 0 W/m2
22:13 56.9 °F /  13.8 °C 49.4 °F /  9.7 °C 30.13in /  1020.2hPa West 2.2mph /  3.5km/h 3mph /  4.8km/h 76% 0.00in /  0mm 0 W/m2
22:19 56.8 °F /  13.8 °C 49.3 °F /  9.6 °C 30.13in /  1020.2hPa West 0.9mph /  1.4km/h 3mph /  4.8km/h 76% 0.00in /  0mm 0 W/m2
22:24 56.7 °F /  13.7 °C 49.1 °F /  9.5 °C 30.13in /  1020.2hPa West 1.3mph /  2.1km/h 3mph /  4.8km/h 76% 0.00in /  0mm 0 W/m2
22:29 56.8 °F /  13.8 °C 49.3 °F /  9.6 °C 30.13in /  1020.2hPa West 1.4mph /  2.3km/h 4mph /  6.4km/h 76% 0.00in /  0mm 0 W/m2
22:34 56.7 °F /  13.7 °C 49.2 °F /  9.6 °C 30.12in /  1019.9hPa West 1.2mph /  1.9km/h 2mph /  3.2km/h 76.2% 0.00in /  0mm 0 W/m2
22:39 56.7 °F /  13.7 °C 49.5 °F /  9.7 °C 30.12in /  1019.9hPa West 0.9mph /  1.4km/h 2mph /  3.2km/h 77% 0.00in /  0mm 0 W/m2
22:44 56.5 °F /  13.6 °C 49.3 °F /  9.6 °C 30.12in /  1019.9hPa West 1.6mph /  2.6km/h 2mph /  3.2km/h 77% 0.00in /  0mm 0 W/m2
22:48 56.4 °F /  13.6 °C 49.2 °F /  9.6 °C 30.13in /  1020.2hPa West 0.9mph /  1.4km/h 2mph /  3.2km/h 77% 0.00in /  0mm 0 W/m2
22:54 56.1 °F /  13.4 °C 48.9 °F /  9.4 °C 30.13in /  1020.2hPa West 0.7mph /  1.1km/h 2mph /  3.2km/h 77% 0.00in /  0mm 0 W/m2
22:59 55.9 °F /  13.3 °C 49 °F /  9.4 °C 30.12in /  1019.9hPa West 1.4mph /  2.3km/h 2mph /  3.2km/h 77.8% 0.00in /  0mm 0 W/m2
23:04 55.6 °F /  13.1 °C 48.9 °F /  9.4 °C 30.12in /  1019.9hPa West 0.4mph /  0.6km/h 1mph /  1.6km/h 78% 0.00in /  0mm 0 W/m2
23:09 55.1 °F /  12.8 °C 48.5 °F /  9.2 °C 30.12in /  1019.9hPa Calm   1mph /  1.6km/h 78% 0.00in /  0mm 0 W/m2
23:14 54.8 °F /  12.7 °C 48.1 °F /  8.9 °C 30.12in /  1019.9hPa West 0.9mph /  1.4km/h 2mph /  3.2km/h 78% 0.00in /  0mm 0 W/m2
23:19 54.3 °F /  12.4 °C 48 °F /  8.9 °C 30.12in /  1019.9hPa West 1.3mph /  2.1km/h 2mph /  3.2km/h 79% 0.00in /  0mm 0 W/m2
23:24 54.1 °F /  12.3 °C 47.8 °F /  8.8 °C 30.12in /  1019.9hPa West 1mph /  1.6km/h 2mph /  3.2km/h 79% 0.00in /  0mm 0 W/m2
23:29 54 °F /  12.2 °C 47.7 °F /  8.7 °C 30.12in /  1019.9hPa West 0.4mph /  0.6km/h 2mph /  3.2km/h 79% 0.00in /  0mm 0 W/m2
23:34 53.6 °F /  12 °C 47.3 °F /  8.5 °C 30.12in /  1019.9hPa West 0.9mph /  1.4km/h 2mph /  3.2km/h 79% 0.00in /  0mm 0 W/m2
23:38 53.4 °F /  11.9 °C 47.1 °F /  8.4 °C 30.12in /  1019.9hPa West 0.6mph /  1km/h 1mph /  1.6km/h 79% 0.00in /  0mm 0 W/m2
23:44 53.4 °F /  11.9 °C 47.1 °F /  8.4 °C 30.12in /  1019.9hPa Calm     79% 0.00in /  0mm 0 W/m2
23:49 53.2 °F /  11.8 °C 46.9 °F /  8.3 °C 30.12in /  1019.9hPa Calm     79% 0.00in /  0mm 0 W/m2
23:54 53.1 °F /  11.7 °C 46.9 °F /  8.3 °C 30.12in /  1019.9hPa Calm   1mph /  1.6km/h 79.4% 0.00in /  0mm 0 W/m2
23:59 53.1 °F /  11.7 °C 47.1 °F /  8.4 °C 30.11in /  1019.5hPa West 1.6mph /  2.6km/h 2mph /  3.2km/h 80% 0.00in /  0mm 0 W/m2
Bath Spa Weather
Compliments of Weather Underground - 2 mb